Time;durP1;ratioP1;P1;durP2;ratioP2;P2;SDS_P1;SDS_P2;PMS_P1;PMS_P2;Temp;Humidity;BMP_temperature;BMP_pressure;BME280_temperature;BME280_humidity;BME280_pressure;Samples;Min_cycle;Max_cycle;Signal;HPM_P1;HPM_P2
2022/12/02 00:02:21;;;;;;;1.65;0.70;;;;;;;3.61;74.44;103540.13;5063344;28;20105;-74
2022/12/02 00:04:54;;;;;;;1.88;1.40;;;;;;;3.50;74.52;103521.47;5063041;28;20045;-74
2022/12/02 00:07:21;;;;;;;2.42;1.40;;;;;;;3.61;74.73;103532.38;5058438;28;20040;-74
2022/12/02 00:09:48;;;;;;;1.98;0.93;;;;;;;3.64;75.14;103534.22;5061148;28;20052;-74
2022/12/02 00:12:23;;;;;;;3.38;1.00;;;;;;;3.64;74.73;103529.94;5061834;28;20105;-73
2022/12/02 00:15:00;;;;;;;1.00;0.70;;;;;;;3.62;75.00;103525.53;5062478;28;20045;-74
2022/12/02 00:17:27;;;;;;;1.98;0.70;;;;;;;3.63;75.08;103527.31;5064626;28;20048;-76
2022/12/02 00:19:54;;;;;;;2.63;1.42;;;;;;;3.62;74.76;103531.59;5059597;28;20135;-74
2022/12/02 00:22:21;;;;;;;1.60;0.80;;;;;;;3.63;74.76;103532.47;5061924;28;20117;-75
2022/12/02 00:24:48;;;;;;;1.60;0.95;;;;;;;3.61;75.07;103529.78;5062119;28;20052;-75
2022/12/02 00:27:14;;;;;;;3.35;1.17;;;;;;;3.59;75.13;103526.25;5062712;28;20055;-74
2022/12/02 00:29:42;;;;;;;1.55;0.90;;;;;;;3.59;74.82;103523.66;5059968;28;20441;-75
2022/12/02 00:32:09;;;;;;;1.05;0.60;;;;;;;3.57;75.08;103531.31;5061561;28;20106;-73
2022/12/02 00:34:36;;;;;;;2.15;0.50;;;;;;;3.56;75.12;103531.25;5062523;28;20615;-75
2022/12/02 00:37:03;;;;;;;1.55;0.73;;;;;;;3.56;75.11;103531.25;5062627;28;20075;-73
2022/12/02 00:39:29;;;;;;;1.92;0.50;;;;;;;3.56;75.39;103523.50;5059509;28;20048;-74
2022/12/02 00:41:57;;;;;;;2.13;0.47;;;;;;;3.48;75.31;103514.44;5059585;28;20049;-75
2022/12/02 00:47:09;;;;;;;1.45;0.52;;;;;;;3.54;75.04;103527.69;5056979;28;20061;-74
2022/12/02 00:49:36;;;;;;;0.60;0.40;;;;;;;3.53;74.95;103524.22;5057933;28;20450;-75
2022/12/02 00:52:03;;;;;;;1.10;0.60;;;;;;;3.54;75.81;103517.34;5058127;28;20106;-74
2022/12/02 00:54:29;;;;;;;1.85;0.57;;;;;;;3.55;75.17;103513.94;5061053;28;20052;-74
2022/12/02 00:56:56;;;;;;;1.23;0.60;;;;;;;3.57;75.46;103520.09;5058948;28;20105;-74
2022/12/02 00:59:23;;;;;;;2.38;0.93;;;;;;;3.58;75.48;103514.13;5060945;28;20572;-74
2022/12/02 01:01:49;;;;;;;1.40;0.70;;;;;;;3.59;75.10;103510.75;5061885;28;20117;-74
2022/12/02 01:04:17;;;;;;;1.52;1.00;;;;;;;3.58;75.48;103511.53;5058860;28;20097;-74
2022/12/02 01:06:44;;;;;;;1.92;1.27;;;;;;;3.53;75.62;103492.28;5059834;28;20762;-74
2022/12/02 01:09:11;;;;;;;2.33;1.10;;;;;;;3.60;75.42;103510.81;5057771;28;20471;-75
2022/12/02 01:11:38;;;;;;;1.88;1.05;;;;;;;3.62;75.67;103504.84;5061338;28;20052;-74
2022/12/02 01:14:05;;;;;;;4.28;0.73;;;;;;;3.62;75.23;103503.16;5061891;28;20570;-74
2022/12/02 01:16:31;;;;;;;0.80;0.60;;;;;;;3.62;75.40;103504.84;5060331;28;20114;-75
2022/12/02 01:18:58;;;;;;;1.75;0.60;;;;;;;3.59;75.66;103503.00;5061153;28;20056;-74
2022/12/02 01:21:26;;;;;;;3.08;0.90;;;;;;;3.52;75.19;103477.59;5062119;28;20048;-74
2022/12/02 01:23:53;;;;;;;1.63;0.90;;;;;;;3.59;75.68;103498.72;5062984;28;20583;-74
2022/12/02 01:26:20;;;;;;;3.28;0.85;;;;;;;3.59;75.57;103497.81;5062169;28;20432;-74
2022/12/02 01:28:47;;;;;;;1.63;0.55;;;;;;;3.58;75.61;103496.91;5060922;28;20048;-74
2022/12/02 01:31:14;;;;;;;1.30;0.85;;;;;;;3.55;75.85;103493.28;5061522;28;20397;-74
2022/12/02 01:33:42;;;;;;;1.20;0.57;;;;;;;3.59;75.93;103501.28;5061281;28;20680;-75
2022/12/02 01:36:09;;;;;;;0.60;0.35;;;;;;;3.50;75.13;103481.78;5061351;28;20040;-74
2022/12/02 01:38:37;;;;;;;1.35;0.40;;;;;;;3.60;75.36;103502.16;5060868;28;20475;-76
2022/12/02 01:41:05;;;;;;;2.25;0.45;;;;;;;3.56;75.61;103492.50;5061080;28;20048;-74
2022/12/02 01:43:32;;;;;;;1.20;0.70;;;;;;;3.60;75.74;103497.88;5058487;28;20095;-74
2022/12/02 01:45:59;;;;;;;1.63;0.50;;;;;;;3.61;75.97;103491.00;5061094;28;20091;-74
2022/12/02 01:48:26;;;;;;;0.90;0.73;;;;;;;3.61;75.80;103493.59;5062813;28;20074;-74
2022/12/02 01:50:53;;;;;;;1.45;0.45;;;;;;;3.58;75.54;103486.56;5059714;28;20052;-74
2022/12/02 01:53:20;;;;;;;0.80;0.40;;;;;;;3.59;75.53;103490.94;5061973;28;20723;-74
2022/12/02 01:55:48;;;;;;;1.48;0.40;;;;;;;3.62;75.77;103485.06;5062951;28;20538;-74
2022/12/02 01:58:18;;;;;;;0.50;0.43;;;;;;;3.59;75.70;103480.63;5062429;28;20040;-75
2022/12/02 02:00:45;;;;;;;0.80;0.50;;;;;;;3.62;75.77;103476.44;5061025;28;20056;-74
2022/12/02 02:03:12;;;;;;;0.88;0.40;;;;;;;3.64;75.63;103483.41;5061008;28;20110;-73
2022/12/02 02:05:38;;;;;;;0.60;0.30;;;;;;;3.66;75.71;103486.09;5059346;28;20554;-74
2022/12/02 02:08:07;;;;;;;1.27;0.40;;;;;;;3.66;75.30;103483.53;5062216;28;20533;-74
2022/12/02 02:10:35;;;;;;;0.85;0.50;;;;;;;3.65;75.48;103474.88;5060666;28;20052;-74
2022/12/02 02:13:05;;;;;;;0.68;0.60;;;;;;;3.64;75.64;103478.25;5062263;28;20048;-74
2022/12/02 02:15:31;;;;;;;0.50;0.28;;;;;;;3.66;75.31;103481.81;5059778;28;20044;-74
2022/12/02 02:17:59;;;;;;;0.90;0.40;;;;;;;3.63;75.53;103479.06;5060644;28;20047;-74
2022/12/02 02:20:27;;;;;;;0.90;0.20;;;;;;;3.65;75.43;103474.88;5061760;28;20044;-74
2022/12/02 02:23:01;;;;;;;0.85;0.28;;;;;;;3.64;75.30;103472.19;5062826;28;20476;-74
2022/12/02 02:25:29;;;;;;;1.15;0.35;;;;;;;3.65;75.25;103472.28;5061942;28;20162;-74
2022/12/02 02:27:58;;;;;;;1.08;0.25;;;;;;;3.64;75.21;103472.19;5060662;28;20056;-74
2022/12/02 02:30:28;;;;;;;1.10;0.28;;;;;;;3.62;75.50;103472.13;5061873;28;20044;-74
2022/12/02 02:32:55;;;;;;;0.43;0.20;;;;;;;3.55;75.00;103463.16;5064621;28;20056;-75
2022/12/02 02:35:22;;;;;;;0.17;0.13;;;;;;;3.55;75.67;103467.44;5064522;28;20052;-74
2022/12/02 02:37:52;;;;;;;0.20;0.20;;;;;;;3.56;75.43;103470.09;5063602;28;20665;-74
2022/12/02 02:40:19;;;;;;;1.08;0.20;;;;;;;3.53;75.23;103471.63;5066446;28;20047;-74
2022/12/02 02:42:51;;;;;;;0.30;0.20;;;;;;;3.51;75.35;103466.38;5066351;28;20109;-75
2022/12/02 02:45:19;;;;;;;0.28;0.17;;;;;;;3.50;75.04;103474.03;5064823;28;20090;-74
2022/12/02 02:47:46;;;;;;;0.30;0.20;;;;;;;3.48;75.33;103465.34;5068651;28;20048;-74
2022/12/02 02:50:13;;;;;;;1.10;1.00;;;;;;;3.47;75.46;103474.78;5064454;28;20098;-74
2022/12/02 02:52:40;;;;;;;0.20;0.10;;;;;;;3.47;75.39;103464.47;5067842;28;20048;-74
2022/12/02 02:55:09;;;;;;;0.30;0.20;;;;;;;3.47;75.40;103460.97;5064949;28;20044;-74
2022/12/02 02:57:36;;;;;;;0.52;0.20;;;;;;;3.46;75.60;103464.34;5065833;28;20044;-74
2022/12/02 03:00:06;;;;;;;0.15;0.10;;;;;;;3.45;74.90;103468.66;5065259;28;20057;-75
2022/12/02 03:02:33;;;;;;;0.20;0.20;;;;;;;3.46;75.02;103467.81;5064671;28;20119;-74
2022/12/02 03:05:00;;;;;;;0.43;0.20;;;;;;;3.46;74.70;103461.78;5064846;28;20064;-74
2022/12/02 03:07:27;;;;;;;0.22;0.17;;;;;;;3.44;75.39;103461.69;5066192;28;20126;-74
2022/12/02 03:09:54;;;;;;;0.35;0.13;;;;;;;3.44;75.37;103458.22;5068380;28;20579;-74
2022/12/02 03:12:22;;;;;;;0.40;0.20;;;;;;;3.45;75.26;103457.44;5063245;28;20186;-74
2022/12/02 03:14:49;;;;;;;0.20;0.10;;;;;;;3.46;75.34;103454.03;5064569;28;20102;-74
2022/12/02 03:17:17;;;;;;;0.30;0.20;;;;;;;3.46;75.40;103456.59;5064756;28;20432;-75
2022/12/02 03:19:45;;;;;;;0.50;0.20;;;;;;;3.46;75.17;103456.59;5068352;28;20052;-74
2022/12/02 03:22:12;;;;;;;0.20;0.20;;;;;;;3.46;75.29;103459.19;5062629;28;20194;-74
2022/12/02 03:24:39;;;;;;;3.30;0.20;;;;;;;3.35;75.37;103441.41;5066962;28;20606;-74
2022/12/02 03:27:09;;;;;;;0.57;0.38;;;;;;;3.42;74.96;103449.50;5066688;28;20466;-76
2022/12/02 03:29:36;;;;;;;1.20;0.30;;;;;;;3.47;75.22;103460.97;5066815;28;20044;-73
2022/12/02 03:32:03;;;;;;;0.80;0.40;;;;;;;3.47;74.99;103460.97;5065202;28;20036;-73
2022/12/02 03:34:32;;;;;;;0.60;0.40;;;;;;;3.46;75.40;103464.34;5066782;28;20045;-75
2022/12/02 03:36:59;;;;;;;1.20;0.75;;;;;;;3.45;75.15;103458.31;5065165;28;20044;-74
2022/12/02 03:39:27;;;;;;;1.63;0.40;;;;;;;3.46;75.17;103454.03;5062571;28;20055;-74
2022/12/02 03:41:54;;;;;;;0.73;0.52;;;;;;;3.46;75.60;103457.50;5063366;28;20044;-74
2022/12/02 03:44:21;;;;;;;2.17;1.13;;;;;;;3.47;75.50;103460.97;5062868;28;20111;-74
2022/12/02 03:46:48;;;;;;;2.50;1.40;;;;;;;3.46;75.28;103456.59;5065504;28;20049;-74
2022/12/02 03:49:16;;;;;;;2.40;1.75;;;;;;;3.47;75.35;103458.38;5064948;28;20040;-75
2022/12/02 03:51:44;;;;;;;5.45;1.95;;;;;;;3.47;75.21;103453.19;5067947;28;20559;-76
2022/12/02 03:54:12;;;;;;;5.32;2.88;;;;;;;3.48;75.78;103452.41;5066438;28;20129;-70
2022/12/02 03:56:41;;;;;;;9.65;4.68;;;;;;;3.46;76.19;103442.00;5064765;28;20555;-71
2022/12/02 03:59:09;;;;;;;7.93;3.17;;;;;;;3.46;76.05;103449.75;5066773;28;20508;-70
2022/12/02 04:01:36;;;;;;;9.05;5.53;;;;;;;3.46;76.16;103446.28;5062907;28;20044;-70
2022/12/02 04:04:03;;;;;;;6.50;4.10;;;;;;;3.47;76.12;103445.44;5067180;28;20446;-70
2022/12/02 04:06:30;;;;;;;8.98;4.00;;;;;;;3.46;76.57;103441.09;5068274;28;20048;-70
2022/12/02 04:08:58;;;;;;;10.40;5.10;;;;;;;3.47;76.27;103443.78;5066709;28;20113;-71
2022/12/02 04:11:25;;;;;;;8.35;4.43;;;;;;;3.48;76.53;103440.38;5068024;28;20458;-70
2022/12/02 04:13:51;;;;;;;12.52;5.35;;;;;;;3.49;76.36;103446.44;5065128;28;20802;-70
2022/12/02 04:16:18;;;;;;;12.77;6.15;;;;;;;3.50;76.23;103437.84;5067849;28;20041;-70
2022/12/02 04:18:45;;;;;;;13.05;5.90;;;;;;;3.51;76.61;103448.28;5068945;28;20040;-69
2022/12/02 04:21:11;;;;;;;18.10;7.88;;;;;;;3.51;76.80;103439.66;5066710;28;20554;-70
2022/12/02 04:23:38;;;;;;;16.52;7.93;;;;;;;3.52;76.83;103437.13;5068510;28;20090;-70
2022/12/02 04:26:06;;;;;;;22.83;9.85;;;;;;;3.53;76.56;103438.03;5069578;28;20048;-70
2022/12/02 04:28:33;;;;;;;19.42;10.55;;;;;;;3.52;77.03;103431.09;5066054;28;20503;-70
2022/12/02 04:31:00;;;;;;;19.23;9.52;;;;;;;3.54;76.70;103432.06;5067307;28;20041;-70
2022/12/02 04:33:27;;;;;;;27.88;12.02;;;;;;;3.53;76.90;103438.03;5067889;28;20126;-69
2022/12/02 04:35:54;;;;;;;24.08;12.50;;;;;;;3.54;77.21;103435.53;5069498;28;20486;-70
2022/12/02 04:38:20;;;;;;;27.45;13.70;;;;;;;3.55;76.94;103433.84;5065394;28;20055;-70
2022/12/02 04:40:47;;;;;;;31.15;12.25;;;;;;;3.55;77.52;103433.84;5069467;28;20056;-70
2022/12/02 04:43:15;;;;;;;30.63;12.10;;;;;;;3.55;77.05;103426.06;5063583;28;20122;-71
2022/12/02 04:45:42;;;;;;;26.45;12.50;;;;;;;3.56;76.98;103438.22;5068973;28;20040;-70
2022/12/02 04:48:09;;;;;;;26.63;11.07;;;;;;;3.59;77.36;103433.22;5068499;28;20439;-70
2022/12/02 04:50:35;;;;;;;22.05;11.63;;;;;;;3.58;76.92;103437.47;5065674;28;20101;-70
2022/12/02 04:53:02;;;;;;;26.48;12.43;;;;;;;3.59;77.13;103434.09;5064681;28;20110;-70
2022/12/02 04:55:29;;;;;;;25.92;12.38;;;;;;;3.59;76.87;103438.38;5065923;28;20498;-70
2022/12/02 04:57:56;;;;;;;23.55;11.73;;;;;;;3.61;77.17;103436.72;5067229;28;20049;-70
2022/12/02 05:00:24;;;;;;;30.77;11.88;;;;;;;3.63;77.07;103440.28;5068867;28;20036;-70
2022/12/02 05:02:51;;;;;;;31.70;14.32;;;;;;;3.64;77.30;103436.91;5064860;28;20544;-70
2022/12/02 05:05:18;;;;;;;27.65;12.18;;;;;;;3.63;77.26;103435.13;5068389;28;20099;-70
2022/12/02 05:07:44;;;;;;;27.10;14.13;;;;;;;3.66;76.98;103435.28;5064353;28;20453;-71
2022/12/02 05:10:11;;;;;;;26.27;11.20;;;;;;;3.66;77.14;103429.25;5067848;28;20052;-69
2022/12/02 05:12:38;;;;;;;30.92;13.82;;;;;;;3.67;76.89;103425.84;5067015;28;20049;-70
2022/12/02 05:15:05;;;;;;;25.35;13.48;;;;;;;3.67;77.32;103421.56;5065257;28;20542;-70
2022/12/02 05:17:33;;;;;;;20.92;11.25;;;;;;;3.67;77.31;103431.91;5065816;28;20062;-70
2022/12/02 05:20:00;;;;;;;28.23;13.13;;;;;;;3.69;77.37;103430.28;5066611;28;20048;-70
2022/12/02 05:22:27;;;;;;;25.33;11.50;;;;;;;3.70;76.69;103432.06;5068173;28;20458;-71
2022/12/02 05:24:54;;;;;;;20.40;10.50;;;;;;;3.70;77.09;103437.25;5066805;28;20159;-70
2022/12/02 05:27:20;;;;;;;26.17;12.32;;;;;;;3.72;77.25;103442.47;5064224;28;20458;-70
2022/12/02 05:29:47;;;;;;;23.33;10.35;;;;;;;3.72;77.13;103440.78;5067105;28;20052;-71
2022/12/02 05:32:14;;;;;;;21.50;10.43;;;;;;;3.73;76.97;103442.56;5063205;28;20259;-70
2022/12/02 05:34:42;;;;;;;23.25;10.57;;;;;;;3.73;76.95;103447.75;5064689;28;20049;-70
2022/12/02 05:37:09;;;;;;;23.17;12.23;;;;;;;3.73;77.11;103446.81;5066581;28;20416;-70
2022/12/02 05:39:35;;;;;;;22.20;9.52;;;;;;;3.74;77.04;103448.63;5066943;28;20049;-70
2022/12/02 05:42:07;;;;;;;29.58;11.32;;;;;;;3.74;77.11;103444.34;5063948;28;20527;-70
2022/12/02 05:44:35;;;;;;;20.38;10.30;;;;;;;3.70;77.01;103436.34;5064928;28;20044;-69
2022/12/02 05:47:09;;;;;;;22.30;11.18;;;;;;;3.74;76.67;103444.34;5063930;28;20108;-70
2022/12/02 05:49:37;;;;;;;20.08;9.32;;;;;;;3.75;76.63;103452.97;5064317;28;20048;-70
2022/12/02 05:52:16;;;;;;;20.05;9.57;;;;;;;3.76;76.68;103447.03;5064490;28;20053;-70
2022/12/02 05:54:43;;;;;;;24.38;11.05;;;;;;;3.77;76.87;103452.25;5066673;28;20102;-70
2022/12/02 05:57:11;;;;;;;17.95;8.77;;;;;;;3.77;76.67;103453.97;5063233;28;20052;-70
2022/12/02 05:59:38;;;;;;;19.40;9.82;;;;;;;3.76;76.73;103466.00;5061091;28;20565;-70
2022/12/02 06:02:21;;;;;;;24.25;11.57;;;;;;;3.76;76.74;103459.94;5065932;28;20041;-70
2022/12/02 06:04:48;;;;;;;27.15;11.88;;;;;;;3.76;76.90;103462.53;5065003;28;20048;-70
2022/12/02 06:07:16;;;;;;;23.23;10.88;;;;;;;3.76;76.93;103470.28;5069413;28;20048;-70
2022/12/02 06:09:43;;;;;;;20.65;10.45;;;;;;;3.74;76.67;103465.03;5069043;28;20447;-70
2022/12/02 06:12:14;;;;;;;21.15;10.02;;;;;;;3.76;76.50;103466.00;5070466;28;20112;-70
2022/12/02 06:14:46;;;;;;;20.80;9.65;;;;;;;3.76;76.51;103473.75;5067495;28;20053;-70
2022/12/02 06:17:16;;;;;;;23.25;11.52;;;;;;;3.78;76.70;103471.22;5066923;28;20048;-69
2022/12/02 06:19:45;;;;;;;27.05;11.48;;;;;;;3.77;76.26;103467.75;5068921;28;20500;-70
2022/12/02 06:22:17;;;;;;;22.15;10.65;;;;;;;3.77;76.15;103459.13;5068445;28;20434;-70
2022/12/02 06:24:45;;;;;;;29.27;13.63;;;;;;;3.76;76.06;103463.41;5062366;28;20057;-70
2022/12/02 06:27:13;;;;;;;22.73;9.63;;;;;;;3.76;76.61;103462.53;5070419;28;20505;-70
2022/12/02 06:29:47;;;;;;;21.33;10.15;;;;;;;3.77;76.22;103460.00;5067901;28;20040;-71
2022/12/02 06:32:18;;;;;;;19.45;8.98;;;;;;;3.78;76.60;103463.47;5071003;28;20052;-69
2022/12/02 06:34:44;;;;;;;24.77;10.75;;;;;;;3.79;76.72;103466.16;5068196;28;20110;-70
2022/12/02 06:37:15;;;;;;;22.42;9.68;;;;;;;3.81;76.64;103469.72;5071128;28;20044;-70
2022/12/02 06:39:46;;;;;;;20.33;11.52;;;;;;;3.74;76.80;103454.69;5069579;28;20048;-69
2022/12/02 06:42:21;;;;;;;19.35;8.98;;;;;;;3.79;76.59;103461.00;5061748;28;20056;-70
2022/12/02 06:45:07;;;;;;;21.50;9.80;;;;;;;3.83;76.34;103470.66;5065442;28;20146;-70
2022/12/02 06:48:08;;;;;;;24.23;11.05;;;;;;;3.84;76.51;103474.13;5063841;28;20120;-70
2022/12/02 06:50:41;;;;;;;22.30;9.35;;;;;;;3.84;76.19;103481.91;5060343;28;20604;-70
2022/12/02 06:53:20;;;;;;;25.83;8.50;;;;;;;3.72;76.59;103464.03;5068048;28;20093;-70
2022/12/02 06:55:49;;;;;;;22.23;9.82;;;;;;;3.85;76.46;103493.16;5065059;28;20051;-70
2022/12/02 06:58:36;;;;;;;25.02;12.13;;;;;;;3.84;76.50;103487.06;5066546;28;20102;-70
2022/12/02 07:01:15;;;;;;;21.70;10.23;;;;;;;3.82;76.08;103481.84;5040029;28;20106;-70
2022/12/02 07:03:46;;;;;;;22.90;11.52;;;;;;;3.83;76.75;103490.47;5065196;28;20106;-70
2022/12/02 07:06:16;;;;;;;22.95;11.00;;;;;;;3.83;76.67;103486.19;5062553;28;20048;-70
2022/12/02 07:08:43;;;;;;;23.27;11.05;;;;;;;3.83;76.01;103485.31;5067805;28;20048;-70
2022/12/02 07:11:48;;;;;;;30.42;13.40;;;;;;;3.83;76.07;103495.63;5068929;28;20045;-70
2022/12/02 07:14:13;;;;;;;19.42;10.15;;;;;;;3.80;76.07;103496.38;5068801;28;20411;-70
2022/12/02 07:16:40;;;;;;;20.67;10.13;;;;;;;3.81;76.09;103505.91;5066910;28;20036;-70
2022/12/02 07:19:15;;;;;;;23.20;11.35;;;;;;;3.79;76.29;103497.19;5066989;28;20075;-70
2022/12/02 07:21:43;;;;;;;16.85;9.73;;;;;;;3.76;76.31;103497.03;5068346;28;20106;-70
2022/12/02 07:24:13;;;;;;;20.63;9.93;;;;;;;3.76;76.14;103494.44;5067787;28;20048;-70
2022/12/02 07:26:42;;;;;;;20.58;9.77;;;;;;;3.76;75.83;103498.72;5067350;28;20045;-71
2022/12/02 07:29:13;;;;;;;17.85;9.68;;;;;;;3.74;75.91;103501.22;5065269;28;20626;-70
2022/12/02 07:31:43;;;;;;;27.90;9.88;;;;;;;3.74;76.10;103496.03;5057714;28;20045;-70
2022/12/02 07:34:10;;;;;;;15.57;8.80;;;;;;;3.74;75.78;103496.03;5065482;28;20044;-70
2022/12/02 07:36:37;;;;;;;18.48;9.55;;;;;;;3.73;76.01;103499.44;5064615;28;20048;-70
2022/12/02 07:39:03;;;;;;;16.70;9.48;;;;;;;3.74;76.36;103492.56;5067682;28;20047;-75
2022/12/02 07:41:30;;;;;;;20.65;9.63;;;;;;;3.75;76.18;103502.97;5063940;28;20090;-73
2022/12/02 07:43:58;;;;;;;18.13;9.50;;;;;;;3.73;75.81;103504.63;5068715;28;20048;-73
2022/12/02 07:46:25;;;;;;;15.25;8.65;;;;;;;3.72;75.91;103497.66;5068188;28;20113;-70
2022/12/02 07:48:52;;;;;;;20.95;9.07;;;;;;;3.72;76.17;103500.22;5038390;28;20052;-71
2022/12/02 07:51:18;;;;;;;15.40;8.75;;;;;;;3.74;76.34;103502.91;5042974;28;20053;-70
2022/12/02 07:53:45;;;;;;;17.83;8.20;;;;;;;3.73;76.33;103501.13;5061145;28;20091;-69
2022/12/02 07:56:12;;;;;;;15.60;7.70;;;;;;;3.73;75.95;103499.44;5064065;28;20052;-70
2022/12/02 07:58:39;;;;;;;14.23;8.55;;;;;;;3.72;76.38;103502.81;5064867;28;20153;-70
2022/12/02 08:01:07;;;;;;;19.92;10.07;;;;;;;3.72;76.08;103502.81;5064593;28;20052;-73
2022/12/02 08:03:33;;;;;;;17.50;7.60;;;;;;;3.72;76.08;103502.81;5065441;28;20106;-73
2022/12/02 08:06:00;;;;;;;17.77;8.60;;;;;;;3.72;76.03;103510.56;5062897;28;20044;-72
2022/12/02 08:08:27;;;;;;;20.17;9.25;;;;;;;3.72;75.83;103513.16;5062167;28;20491;-73
2022/12/02 08:10:54;;;;;;;8.90;3.80;;;;;;;3.72;76.15;103513.16;5064151;28;20178;-73
2022/12/02 08:13:20;;;;;;;17.27;8.30;;;;;;;3.73;75.96;103516.63;5067863;28;20052;-72
2022/12/02 08:15:47;;;;;;;17.75;8.25;;;;;;;3.74;76.02;103523.59;5064349;28;20037;-71
2022/12/02 08:18:15;;;;;;;16.85;8.68;;;;;;;3.74;76.06;103519.31;5067785;28;20094;-71
2022/12/02 08:20:42;;;;;;;18.13;8.85;;;;;;;3.74;75.45;103526.19;5063678;28;20048;-72
2022/12/02 08:23:09;;;;;;;13.75;6.35;;;;;;;3.74;75.80;103521.00;5064474;28;20492;-71
2022/12/02 08:25:35;;;;;;;17.83;8.15;;;;;;;3.74;75.23;103521.91;5062676;28;20044;-71
2022/12/02 08:28:02;;;;;;;14.77;7.72;;;;;;;3.74;75.66;103524.47;5064613;28;20106;-71
2022/12/02 08:30:29;;;;;;;15.38;7.95;;;;;;;3.75;75.07;103521.09;5062092;28;20559;-71
2022/12/02 08:32:55;;;;;;;15.13;6.82;;;;;;;3.75;75.04;103523.66;5066903;28;20056;-71
2022/12/02 08:35:23;;;;;;;13.68;6.28;;;;;;;3.76;75.02;103524.56;5064850;28;20849;-73
2022/12/02 08:37:50;;;;;;;14.20;6.10;;;;;;;3.75;74.74;103528.84;5066888;28;20068;-73
2022/12/02 08:40:17;;;;;;;11.82;6.53;;;;;;;3.69;74.84;103522.47;5067192;28;20044;-72
2022/12/02 08:42:44;;;;;;;16.30;6.95;;;;;;;3.74;74.84;103532.25;5065649;28;20389;-72
2022/12/02 08:45:11;;;;;;;12.52;5.95;;;;;;;3.74;74.94;103534.81;5066309;28;20045;-73
2022/12/02 08:47:38;;;;;;;14.68;7.20;;;;;;;3.74;74.61;103529.66;5064250;28;20086;-72
2022/12/02 08:50:06;;;;;;;13.43;5.90;;;;;;;3.74;74.67;103541.69;5062182;28;20036;-72
2022/12/02 08:52:34;;;;;;;14.27;6.10;;;;;;;3.74;74.64;103536.53;5048622;28;20059;-72
2022/12/02 08:55:01;;;;;;;13.23;6.60;;;;;;;3.73;74.78;103539.91;5062949;28;20106;-71
2022/12/02 08:57:28;;;;;;;10.30;6.03;;;;;;;3.72;74.75;103539.00;5054992;28;20052;-71
2022/12/02 08:59:54;;;;;;;14.07;6.47;;;;;;;3.71;74.35;103532.06;5061174;28;20052;-71
2022/12/02 09:02:21;;;;;;;12.30;6.95;;;;;;;3.70;74.55;103539.72;5061658;28;20040;-72
2022/12/02 09:04:48;;;;;;;10.63;5.93;;;;;;;3.69;74.32;103543.13;5057787;28;20048;-70
2022/12/02 09:07:14;;;;;;;17.40;7.13;;;;;;;3.66;74.36;103533.53;5060577;28;20085;-72
2022/12/02 09:09:43;;;;;;;13.95;7.47;;;;;;;3.67;74.32;103539.56;5063945;28;20074;-72
2022/12/02 09:12:09;;;;;;;12.80;7.45;;;;;;;3.66;74.38;103536.09;5062788;28;20730;-71
2022/12/02 09:14:36;;;;;;;10.32;5.05;;;;;;;3.66;73.92;103538.69;5064689;28;20052;-71
2022/12/02 09:17:03;;;;;;;15.02;5.85;;;;;;;3.66;73.88;103536.09;5063057;28;20789;-71
2022/12/02 09:19:30;;;;;;;13.48;6.13;;;;;;;3.68;73.77;103541.38;5051297;28;20496;-71
2022/12/02 09:21:56;;;;;;;13.90;4.47;;;;;;;3.65;73.29;103539.50;5061655;28;20036;-70
2022/12/02 09:24:23;;;;;;;9.88;4.07;;;;;;;3.63;73.43;103537.63;5064910;28;20052;-71
2022/12/02 09:26:51;;;;;;;9.00;4.13;;;;;;;3.60;73.43;103543.53;5061521;28;20193;-71
2022/12/02 09:29:18;;;;;;;14.90;4.88;;;;;;;3.59;73.36;103541.75;5062785;28;20094;-70
2022/12/02 09:31:44;;;;;;;11.10;4.43;;;;;;;3.56;72.96;103550.22;5061560;28;20537;-71
2022/12/02 09:34:11;;;;;;;10.80;4.15;;;;;;;3.57;71.87;103548.53;5063757;28;20044;-71
2022/12/02 09:36:38;;;;;;;5.70;2.80;;;;;;;3.54;71.99;103548.38;5062857;28;20086;-70
2022/12/02 09:39:05;;;;;;;8.25;3.28;;;;;;;3.50;72.06;103555.06;5064679;28;20048;-71
2022/12/02 09:41:32;;;;;;;9.48;4.18;;;;;;;3.48;72.00;103546.34;5063454;28;20102;-70
2022/12/02 09:44:00;;;;;;;8.77;3.40;;;;;;;3.47;71.69;103541.06;5065917;28;20664;-70
2022/12/02 09:46:27;;;;;;;7.40;3.72;;;;;;;3.44;71.12;103543.47;5064196;28;20460;-72
2022/12/02 09:48:54;;;;;;;9.45;2.80;;;;;;;3.42;70.99;103545.13;5063636;28;20052;-71
2022/12/02 09:51:21;;;;;;;6.28;3.50;;;;;;;3.38;70.86;103544.91;5066614;28;20039;-72
2022/12/02 09:53:47;;;;;;;7.70;3.53;;;;;;;3.38;70.85;103546.63;5061909;28;20499;-71
2022/12/02 09:56:17;;;;;;;9.63;3.42;;;;;;;3.37;70.85;103539.69;5064215;28;20629;-72
2022/12/02 09:58:44;;;;;;;7.22;2.92;;;;;;;3.36;70.99;103549.13;5062266;28;20109;-70
2022/12/02 10:01:14;;;;;;;6.72;2.95;;;;;;;3.36;70.57;103550.84;5065533;28;20057;-71
2022/12/02 10:03:42;;;;;;;6.13;2.33;;;;;;;3.34;70.43;103545.56;5060240;28;20853;-70
2022/12/02 10:06:20;;;;;;;7.80;3.35;;;;;;;3.33;70.70;103546.38;5062884;28;20048;-70
2022/12/02 10:08:47;;;;;;;6.40;3.33;;;;;;;3.33;70.70;103543.78;5064702;28;20098;-70
2022/12/02 10:11:26;;;;;;;6.32;3.08;;;;;;;3.32;70.93;103539.41;5062594;28;20467;-69
2022/12/02 10:13:54;;;;;;;15.13;4.70;;;;;;;3.31;70.07;103531.59;5064586;28;20052;-71
2022/12/02 10:16:22;;;;;;;4.38;2.45;;;;;;;3.29;70.15;103534.06;5061117;28;20189;-71
2022/12/02 10:18:49;;;;;;;13.68;2.60;;;;;;;3.30;69.99;103532.38;5063778;28;20048;-71
2022/12/02 10:21:16;;;;;;;7.75;3.65;;;;;;;3.28;70.05;103534.00;5063890;28;20113;-73
2022/12/02 10:23:53;;;;;;;8.00;3.08;;;;;;;3.30;70.33;103537.53;5063170;28;20762;-73
2022/12/02 10:26:20;;;;;;;5.47;2.63;;;;;;;3.27;70.37;103537.38;5062585;28;20053;-71
2022/12/02 10:29:01;;;;;;;10.85;3.45;;;;;;;3.26;70.30;103541.66;5064577;28;20084;-72
2022/12/02 10:31:29;;;;;;;6.47;3.17;;;;;;;3.19;69.77;103529.22;5065894;28;20040;-72
2022/12/02 10:33:58;;;;;;;6.95;3.00;;;;;;;3.22;69.69;103539.72;5064976;28;20053;-72
2022/12/02 10:36:33;;;;;;;6.15;3.13;;;;;;;3.20;69.21;103536.16;5065025;28;20106;-71
2022/12/02 10:39:22;;;;;;;8.52;3.85;;;;;;;3.20;69.75;103540.44;5064712;28;20799;-72
2022/12/02 10:41:50;;;;;;;4.88;2.53;;;;;;;3.17;69.65;103537.69;5063348;28;20051;-73
2022/12/02 10:44:18;;;;;;;8.48;2.83;;;;;;;3.11;69.41;103531.38;5064729;28;20049;-73
2022/12/02 10:46:46;;;;;;;11.35;3.45;;;;;;;3.17;69.56;103540.28;5065172;28;20056;-72
2022/12/02 10:49:31;;;;;;;6.10;2.47;;;;;;;3.17;69.41;103545.44;5062298;28;20459;-71
2022/12/02 10:52:02;;;;;;;4.40;2.97;;;;;;;3.16;69.12;103541.97;5064715;28;20048;-71
2022/12/02 10:54:32;;;;;;;5.93;2.78;;;;;;;3.12;68.89;103538.31;5067690;28;20102;-70
2022/12/02 10:57:00;;;;;;;9.93;1.98;;;;;;;3.13;69.09;103540.09;5068324;28;20040;-71
2022/12/02 10:59:28;;;;;;;8.00;2.95;;;;;;;3.11;68.16;103535.66;5065389;28;20553;-72
2022/12/02 11:01:56;;;;;;;8.07;2.58;;;;;;;3.09;68.13;103540.72;5065981;28;20086;-72
2022/12/02 11:04:24;;;;;;;4.63;2.90;;;;;;;3.08;68.00;103540.63;5065905;28;20052;-71
2022/12/02 11:06:54;;;;;;;9.25;2.17;;;;;;;3.07;67.83;103529.41;5065742;28;20045;-72
2022/12/02 11:09:24;;;;;;;6.85;2.13;;;;;;;3.03;67.88;103544.66;5064377;28;20090;-72
2022/12/02 11:11:52;;;;;;;5.20;2.55;;;;;;;3.05;67.77;103545.63;5067232;28;20499;-71
2022/12/02 11:14:53;;;;;;;7.97;2.58;;;;;;;3.04;67.56;103544.72;5062807;28;20075;-72
2022/12/02 11:17:48;;;;;;;4.35;2.28;;;;;;;3.00;67.31;103541.91;5067135;28;20083;-71
2022/12/02 11:20:35;;;;;;;6.05;2.80;;;;;;;3.00;67.56;103542.78;5068121;28;20048;-74
2022/12/02 11:23:23;;;;;;;4.18;1.52;;;;;;;2.99;67.92;103534.94;5066982;28;20593;-72
2022/12/02 11:26:05;;;;;;;3.28;2.15;;;;;;;3.00;67.42;103532.44;5064442;28;20090;-72
2022/12/02 11:28:53;;;;;;;3.40;2.22;;;;;;;3.00;67.82;103534.16;5067533;28;20056;-71
2022/12/02 11:31:24;;;;;;;4.63;2.38;;;;;;;2.97;67.74;103527.13;5065362;28;20097;-72
2022/12/02 11:34:15;;;;;;;5.53;2.40;;;;;;;2.99;67.98;103532.34;5065347;28;20471;-70
2022/12/02 11:36:42;;;;;;;3.47;2.53;;;;;;;2.96;66.44;103532.19;5064313;28;20048;-70
2022/12/02 11:39:11;;;;;;;3.55;2.33;;;;;;;2.93;66.97;103536.38;5061656;28;21410;-70